sensor_id;sensor_type;location;lat;lon;timestamp;P1;durP1;ratioP1;P2;durP2;ratioP2
14094;SDS011;18096;48.142;16.290;2022-08-19T00:00:06;3.17;;;1.57;;
14094;SDS011;18096;48.142;16.290;2022-08-19T00:02:34;6.50;;;2.40;;
14094;SDS011;18096;48.142;16.290;2022-08-19T00:05:00;2.38;;;2.10;;
14094;SDS011;18096;48.142;16.290;2022-08-19T00:07:27;2.10;;;1.90;;
14094;SDS011;18096;48.142;16.290;2022-08-19T00:09:52;2.70;;;2.00;;
14094;SDS011;18096;48.142;16.290;2022-08-19T00:12:19;3.58;;;2.60;;
14094;SDS011;18096;48.142;16.290;2022-08-19T00:14:44;2.58;;;2.03;;
14094;SDS011;18096;48.142;16.290;2022-08-19T00:17:10;4.03;;;2.50;;
14094;SDS011;18096;48.142;16.290;2022-08-19T00:19:36;2.07;;;1.87;;
14094;SDS011;18096;48.142;16.290;2022-08-19T00:22:03;3.45;;;1.90;;
14094;SDS011;18096;48.142;16.290;2022-08-19T00:24:30;7.70;;;2.20;;
14094;SDS011;18096;48.142;16.290;2022-08-19T00:26:57;3.75;;;1.80;;
14094;SDS011;18096;48.142;16.290;2022-08-19T00:29:23;2.15;;;2.05;;
14094;SDS011;18096;48.142;16.290;2022-08-19T00:31:50;6.90;;;2.40;;
14094;SDS011;18096;48.142;16.290;2022-08-19T00:34:19;2.50;;;2.10;;
14094;SDS011;18096;48.142;16.290;2022-08-19T00:36:46;4.75;;;1.75;;
14094;SDS011;18096;48.142;16.290;2022-08-19T00:39:13;2.25;;;2.10;;
14094;SDS011;18096;48.142;16.290;2022-08-19T00:41:40;1.83;;;1.73;;
14094;SDS011;18096;48.142;16.290;2022-08-19T00:46:42;4.60;;;2.30;;
14094;SDS011;18096;48.142;16.290;2022-08-19T00:49:11;4.20;;;2.40;;
14094;SDS011;18096;48.142;16.290;2022-08-19T00:51:43;6.13;;;2.75;;
14094;SDS011;18096;48.142;16.290;2022-08-19T00:54:11;3.33;;;2.08;;
14094;SDS011;18096;48.142;16.290;2022-08-19T00:56:38;4.90;;;2.63;;
14094;SDS011;18096;48.142;16.290;2022-08-19T00:59:03;3.80;;;2.17;;
14094;SDS011;18096;48.142;16.290;2022-08-19T01:01:34;4.32;;;2.25;;
14094;SDS011;18096;48.142;16.290;2022-08-19T01:04:01;3.53;;;2.10;;
14094;SDS011;18096;48.142;16.290;2022-08-19T01:06:27;6.15;;;2.60;;
14094;SDS011;18096;48.142;16.290;2022-08-19T01:08:53;2.30;;;1.73;;
14094;SDS011;18096;48.142;16.290;2022-08-19T01:11:20;2.20;;;1.88;;
14094;SDS011;18096;48.142;16.290;2022-08-19T01:13:46;5.60;;;2.40;;
14094;SDS011;18096;48.142;16.290;2022-08-19T01:16:11;3.50;;;2.00;;
14094;SDS011;18096;48.142;16.290;2022-08-19T01:18:39;2.50;;;2.30;;
14094;SDS011;18096;48.142;16.290;2022-08-19T01:23:50;6.27;;;2.47;;
14094;SDS011;18096;48.142;16.290;2022-08-19T01:26:20;6.97;;;1.95;;
14094;SDS011;18096;48.142;16.290;2022-08-19T01:28:48;4.50;;;2.35;;
14094;SDS011;18096;48.142;16.290;2022-08-19T01:31:17;5.70;;;2.90;;
14094;SDS011;18096;48.142;16.290;2022-08-19T01:33:46;2.50;;;2.30;;
14094;SDS011;18096;48.142;16.290;2022-08-19T01:36:15;3.80;;;2.40;;
14094;SDS011;18096;48.142;16.290;2022-08-19T01:38:47;5.70;;;2.50;;
14094;SDS011;18096;48.142;16.290;2022-08-19T01:41:14;5.50;;;2.50;;
14094;SDS011;18096;48.142;16.290;2022-08-19T01:43:42;4.68;;;2.25;;
14094;SDS011;18096;48.142;16.290;2022-08-19T01:46:08;8.43;;;3.15;;
14094;SDS011;18096;48.142;16.290;2022-08-19T01:48:36;2.43;;;2.20;;
14094;SDS011;18096;48.142;16.290;2022-08-19T01:51:06;3.53;;;2.80;;
14094;SDS011;18096;48.142;16.290;2022-08-19T01:53:32;2.50;;;2.25;;
14094;SDS011;18096;48.142;16.290;2022-08-19T01:55:58;2.95;;;2.40;;
14094;SDS011;18096;48.142;16.290;2022-08-19T01:58:26;4.97;;;2.80;;
14094;SDS011;18096;48.142;16.290;2022-08-19T02:00:56;8.27;;;3.40;;
14094;SDS011;18096;48.142;16.290;2022-08-19T02:03:23;6.17;;;2.40;;
14094;SDS011;18096;48.142;16.290;2022-08-19T02:05:53;4.90;;;2.70;;
14094;SDS011;18096;48.142;16.290;2022-08-19T02:08:20;8.10;;;2.60;;
14094;SDS011;18096;48.142;16.290;2022-08-19T02:10:45;3.85;;;2.63;;
14094;SDS011;18096;48.142;16.290;2022-08-19T02:13:11;3.90;;;2.40;;
14094;SDS011;18096;48.142;16.290;2022-08-19T02:15:38;2.47;;;2.28;;
14094;SDS011;18096;48.142;16.290;2022-08-19T02:18:04;9.30;;;2.70;;
14094;SDS011;18096;48.142;16.290;2022-08-19T02:20:33;8.88;;;3.00;;
14094;SDS011;18096;48.142;16.290;2022-08-19T02:22:58;2.10;;;1.85;;
14094;SDS011;18096;48.142;16.290;2022-08-19T02:25:25;10.18;;;3.28;;
14094;SDS011;18096;48.142;16.290;2022-08-19T02:27:50;7.57;;;2.70;;
14094;SDS011;18096;48.142;16.290;2022-08-19T02:30:16;4.17;;;1.83;;
14094;SDS011;18096;48.142;16.290;2022-08-19T02:32:42;8.40;;;2.60;;
14094;SDS011;18096;48.142;16.290;2022-08-19T02:35:08;3.22;;;2.17;;
14094;SDS011;18096;48.142;16.290;2022-08-19T02:37:34;4.05;;;2.40;;
14094;SDS011;18096;48.142;16.290;2022-08-19T02:40:27;4.22;;;2.10;;
14094;SDS011;18096;48.142;16.290;2022-08-19T02:42:53;4.32;;;1.95;;
14094;SDS011;18096;48.142;16.290;2022-08-19T02:45:19;6.60;;;2.40;;
14094;SDS011;18096;48.142;16.290;2022-08-19T02:47:45;3.50;;;2.30;;
14094;SDS011;18096;48.142;16.290;2022-08-19T02:50:11;4.30;;;2.30;;
14094;SDS011;18096;48.142;16.290;2022-08-19T02:52:37;2.10;;;1.90;;
14094;SDS011;18096;48.142;16.290;2022-08-19T02:55:03;13.10;;;2.35;;
14094;SDS011;18096;48.142;16.290;2022-08-19T02:57:30;2.58;;;2.38;;
14094;SDS011;18096;48.142;16.290;2022-08-19T02:59:56;3.20;;;2.30;;
14094;SDS011;18096;48.142;16.290;2022-08-19T03:02:22;5.20;;;2.97;;
14094;SDS011;18096;48.142;16.290;2022-08-19T03:04:48;8.37;;;3.10;;
14094;SDS011;18096;48.142;16.290;2022-08-19T03:07:14;2.20;;;2.00;;
14094;SDS011;18096;48.142;16.290;2022-08-19T03:09:40;15.37;;;2.80;;
14094;SDS011;18096;48.142;16.290;2022-08-19T03:12:07;7.55;;;2.28;;
14094;SDS011;18096;48.142;16.290;2022-08-19T03:14:34;3.67;;;2.75;;
14094;SDS011;18096;48.142;16.290;2022-08-19T03:17:00;2.17;;;2.00;;
14094;SDS011;18096;48.142;16.290;2022-08-19T03:19:26;2.80;;;2.45;;
14094;SDS011;18096;48.142;16.290;2022-08-19T03:21:52;5.68;;;2.30;;
14094;SDS011;18096;48.142;16.290;2022-08-19T03:24:18;2.60;;;2.40;;
14094;SDS011;18096;48.142;16.290;2022-08-19T03:26:47;4.00;;;2.00;;
14094;SDS011;18096;48.142;16.290;2022-08-19T03:29:15;7.15;;;2.05;;
14094;SDS011;18096;48.142;16.290;2022-08-19T03:31:42;4.05;;;2.60;;
14094;SDS011;18096;48.142;16.290;2022-08-19T03:34:15;12.35;;;2.78;;
14094;SDS011;18096;48.142;16.290;2022-08-19T03:36:42;20.10;;;2.20;;
14094;SDS011;18096;48.142;16.290;2022-08-19T03:39:09;3.67;;;2.95;;
14094;SDS011;18096;48.142;16.290;2022-08-19T03:41:39;3.93;;;2.33;;
14094;SDS011;18096;48.142;16.290;2022-08-19T03:44:05;4.10;;;2.80;;
14094;SDS011;18096;48.142;16.290;2022-08-19T03:46:33;3.38;;;2.78;;
14094;SDS011;18096;48.142;16.290;2022-08-19T03:49:02;5.70;;;2.50;;
14094;SDS011;18096;48.142;16.290;2022-08-19T03:51:34;3.88;;;2.35;;
14094;SDS011;18096;48.142;16.290;2022-08-19T03:54:03;3.90;;;2.70;;
14094;SDS011;18096;48.142;16.290;2022-08-19T03:56:33;3.30;;;2.95;;
14094;SDS011;18096;48.142;16.290;2022-08-19T03:59:00;6.10;;;2.90;;
14094;SDS011;18096;48.142;16.290;2022-08-19T04:01:27;6.60;;;2.83;;
14094;SDS011;18096;48.142;16.290;2022-08-19T04:03:53;7.20;;;2.50;;
14094;SDS011;18096;48.142;16.290;2022-08-19T04:06:23;4.07;;;2.55;;
14094;SDS011;18096;48.142;16.290;2022-08-19T04:09:01;10.00;;;3.15;;
14094;SDS011;18096;48.142;16.290;2022-08-19T04:12:02;6.40;;;3.15;;
14094;SDS011;18096;48.142;16.290;2022-08-19T04:14:22;3.00;;;2.45;;
14094;SDS011;18096;48.142;16.290;2022-08-19T04:16:50;3.72;;;3.00;;
14094;SDS011;18096;48.142;16.290;2022-08-19T04:19:18;3.33;;;2.80;;
14094;SDS011;18096;48.142;16.290;2022-08-19T04:21:45;12.93;;;2.83;;
14094;SDS011;18096;48.142;16.290;2022-08-19T04:24:12;8.40;;;2.63;;
14094;SDS011;18096;48.142;16.290;2022-08-19T04:26:39;10.45;;;3.28;;
14094;SDS011;18096;48.142;16.290;2022-08-19T04:29:06;4.53;;;2.73;;
14094;SDS011;18096;48.142;16.290;2022-08-19T04:31:35;12.18;;;2.88;;
14094;SDS011;18096;48.142;16.290;2022-08-19T04:34:03;2.40;;;2.25;;
14094;SDS011;18096;48.142;16.290;2022-08-19T04:36:31;3.25;;;2.47;;
14094;SDS011;18096;48.142;16.290;2022-08-19T04:39:00;6.93;;;3.15;;
14094;SDS011;18096;48.142;16.290;2022-08-19T04:41:31;6.50;;;3.00;;
14094;SDS011;18096;48.142;16.290;2022-08-19T04:44:15;9.70;;;2.75;;
14094;SDS011;18096;48.142;16.290;2022-08-19T04:46:43;5.80;;;2.07;;
14094;SDS011;18096;48.142;16.290;2022-08-19T04:49:09;5.97;;;2.63;;
14094;SDS011;18096;48.142;16.290;2022-08-19T04:51:36;7.95;;;2.47;;
14094;SDS011;18096;48.142;16.290;2022-08-19T04:54:04;3.40;;;3.10;;
14094;SDS011;18096;48.142;16.290;2022-08-19T04:56:30;7.25;;;3.05;;
14094;SDS011;18096;48.142;16.290;2022-08-19T04:58:56;4.20;;;3.10;;
14094;SDS011;18096;48.142;16.290;2022-08-19T05:01:26;11.73;;;2.60;;
14094;SDS011;18096;48.142;16.290;2022-08-19T05:03:53;5.53;;;2.42;;
14094;SDS011;18096;48.142;16.290;2022-08-19T05:06:19;3.97;;;2.70;;
14094;SDS011;18096;48.142;16.290;2022-08-19T05:08:46;3.40;;;2.50;;
14094;SDS011;18096;48.142;16.290;2022-08-19T05:11:15;9.73;;;3.50;;
14094;SDS011;18096;48.142;16.290;2022-08-19T05:13:46;4.37;;;2.57;;
14094;SDS011;18096;48.142;16.290;2022-08-19T05:16:13;4.33;;;3.50;;
14094;SDS011;18096;48.142;16.290;2022-08-19T05:18:40;3.60;;;2.80;;
14094;SDS011;18096;48.142;16.290;2022-08-19T05:21:25;2.60;;;2.40;;
14094;SDS011;18096;48.142;16.290;2022-08-19T05:24:11;3.55;;;2.67;;
14094;SDS011;18096;48.142;16.290;2022-08-19T05:26:38;3.00;;;2.80;;
14094;SDS011;18096;48.142;16.290;2022-08-19T05:29:06;6.10;;;2.95;;
14094;SDS011;18096;48.142;16.290;2022-08-19T05:31:33;5.38;;;3.08;;
14094;SDS011;18096;48.142;16.290;2022-08-19T05:34:00;4.50;;;2.90;;
14094;SDS011;18096;48.142;16.290;2022-08-19T05:36:27;8.77;;;3.47;;
14094;SDS011;18096;48.142;16.290;2022-08-19T05:38:53;4.45;;;3.50;;
14094;SDS011;18096;48.142;16.290;2022-08-19T05:41:20;3.70;;;3.40;;
14094;SDS011;18096;48.142;16.290;2022-08-19T05:43:52;4.20;;;3.90;;
14094;SDS011;18096;48.142;16.290;2022-08-19T05:46:18;4.28;;;3.85;;
14094;SDS011;18096;48.142;16.290;2022-08-19T05:48:44;4.35;;;3.72;;
14094;SDS011;18096;48.142;16.290;2022-08-19T05:51:11;3.88;;;3.60;;
14094;SDS011;18096;48.142;16.290;2022-08-19T05:53:36;4.43;;;3.90;;
14094;SDS011;18096;48.142;16.290;2022-08-19T05:56:09;5.03;;;4.10;;
14094;SDS011;18096;48.142;16.290;2022-08-19T05:58:37;4.72;;;3.65;;
14094;SDS011;18096;48.142;16.290;2022-08-19T06:01:04;5.00;;;4.07;;
14094;SDS011;18096;48.142;16.290;2022-08-19T06:03:35;5.00;;;4.43;;
14094;SDS011;18096;48.142;16.290;2022-08-19T06:06:02;5.20;;;4.70;;
14094;SDS011;18096;48.142;16.290;2022-08-19T06:08:30;5.77;;;5.10;;
14094;SDS011;18096;48.142;16.290;2022-08-19T06:10:56;8.80;;;4.90;;
14094;SDS011;18096;48.142;16.290;2022-08-19T06:13:22;4.43;;;4.07;;
14094;SDS011;18096;48.142;16.290;2022-08-19T06:15:48;6.45;;;5.40;;
14094;SDS011;18096;48.142;16.290;2022-08-19T06:18:14;4.20;;;3.90;;
14094;SDS011;18096;48.142;16.290;2022-08-19T06:20:41;5.78;;;4.90;;
14094;SDS011;18096;48.142;16.290;2022-08-19T06:23:07;6.35;;;5.10;;
14094;SDS011;18096;48.142;16.290;2022-08-19T06:25:34;5.30;;;4.80;;
14094;SDS011;18096;48.142;16.290;2022-08-19T06:28:00;5.85;;;5.00;;
14094;SDS011;18096;48.142;16.290;2022-08-19T06:30:26;4.87;;;4.13;;
14094;SDS011;18096;48.142;16.290;2022-08-19T06:32:52;5.18;;;4.63;;
14094;SDS011;18096;48.142;16.290;2022-08-19T06:35:18;3.95;;;3.75;;
14094;SDS011;18096;48.142;16.290;2022-08-19T06:37:44;6.28;;;4.18;;
14094;SDS011;18096;48.142;16.290;2022-08-19T06:40:10;7.80;;;4.60;;
14094;SDS011;18096;48.142;16.290;2022-08-19T06:42:37;8.32;;;4.47;;
14094;SDS011;18096;48.142;16.290;2022-08-19T06:45:04;4.60;;;4.20;;
14094;SDS011;18096;48.142;16.290;2022-08-19T06:47:30;5.13;;;3.90;;
14094;SDS011;18096;48.142;16.290;2022-08-19T06:49:58;4.60;;;4.10;;
14094;SDS011;18096;48.142;16.290;2022-08-19T06:52:29;4.67;;;4.17;;
14094;SDS011;18096;48.142;16.290;2022-08-19T06:54:55;4.35;;;3.92;;
14094;SDS011;18096;48.142;16.290;2022-08-19T06:57:23;7.35;;;4.03;;
14094;SDS011;18096;48.142;16.290;2022-08-19T06:59:49;4.13;;;3.83;;
14094;SDS011;18096;48.142;16.290;2022-08-19T07:02:15;3.45;;;3.15;;
14094;SDS011;18096;48.142;16.290;2022-08-19T07:04:41;2.90;;;2.70;;
14094;SDS011;18096;48.142;16.290;2022-08-19T07:07:08;4.10;;;3.70;;
14094;SDS011;18096;48.142;16.290;2022-08-19T07:09:41;3.30;;;3.05;;
14094;SDS011;18096;48.142;16.290;2022-08-19T07:12:09;4.72;;;3.45;;
14094;SDS011;18096;48.142;16.290;2022-08-19T07:14:37;4.18;;;3.00;;
14094;SDS011;18096;48.142;16.290;2022-08-19T07:17:10;3.53;;;3.22;;
14094;SDS011;18096;48.142;16.290;2022-08-19T07:19:37;4.10;;;2.50;;
14094;SDS011;18096;48.142;16.290;2022-08-19T07:22:04;5.53;;;3.00;;
14094;SDS011;18096;48.142;16.290;2022-08-19T07:24:32;2.97;;;2.70;;
14094;SDS011;18096;48.142;16.290;2022-08-19T07:26:59;3.30;;;2.53;;
14094;SDS011;18096;48.142;16.290;2022-08-19T07:29:27;2.60;;;2.50;;
14094;SDS011;18096;48.142;16.290;2022-08-19T07:31:55;2.90;;;2.70;;
14094;SDS011;18096;48.142;16.290;2022-08-19T07:34:22;3.28;;;3.08;;
14094;SDS011;18096;48.142;16.290;2022-08-19T07:36:49;2.97;;;2.70;;
14094;SDS011;18096;48.142;16.290;2022-08-19T07:39:17;3.55;;;2.58;;
14094;SDS011;18096;48.142;16.290;2022-08-19T07:41:45;3.10;;;2.90;;
14094;SDS011;18096;48.142;16.290;2022-08-19T07:44:12;6.90;;;3.08;;
14094;SDS011;18096;48.142;16.290;2022-08-19T07:46:39;3.05;;;2.75;;
14094;SDS011;18096;48.142;16.290;2022-08-19T07:49:07;4.78;;;2.95;;
14094;SDS011;18096;48.142;16.290;2022-08-19T07:51:38;2.25;;;2.15;;
14094;SDS011;18096;48.142;16.290;2022-08-19T07:54:04;3.08;;;2.90;;
14094;SDS011;18096;48.142;16.290;2022-08-19T07:56:29;3.27;;;2.97;;
14094;SDS011;18096;48.142;16.290;2022-08-19T07:58:55;2.95;;;2.75;;
14094;SDS011;18096;48.142;16.290;2022-08-19T08:01:22;3.23;;;2.77;;
14094;SDS011;18096;48.142;16.290;2022-08-19T08:03:50;4.90;;;3.10;;
14094;SDS011;18096;48.142;16.290;2022-08-19T08:06:35;10.02;;;3.45;;
14094;SDS011;18096;48.142;16.290;2022-08-19T08:09:22;3.33;;;3.10;;
14094;SDS011;18096;48.142;16.290;2022-08-19T08:11:51;6.50;;;3.30;;
14094;SDS011;18096;48.142;16.290;2022-08-19T08:14:44;3.58;;;2.90;;
14094;SDS011;18096;48.142;16.290;2022-08-19T08:17:09;3.72;;;3.03;;
14094;SDS011;18096;48.142;16.290;2022-08-19T08:19:35;3.35;;;3.05;;
14094;SDS011;18096;48.142;16.290;2022-08-19T08:22:02;6.80;;;3.20;;
14094;SDS011;18096;48.142;16.290;2022-08-19T08:24:31;2.67;;;2.58;;
14094;SDS011;18096;48.142;16.290;2022-08-19T08:26:59;4.32;;;3.10;;
14094;SDS011;18096;48.142;16.290;2022-08-19T08:29:26;3.00;;;2.70;;
14094;SDS011;18096;48.142;16.290;2022-08-19T08:31:52;3.70;;;3.40;;
14094;SDS011;18096;48.142;16.290;2022-08-19T08:34:19;3.30;;;3.00;;
14094;SDS011;18096;48.142;16.290;2022-08-19T08:36:45;3.37;;;3.07;;
14094;SDS011;18096;48.142;16.290;2022-08-19T08:39:12;3.92;;;2.45;;
14094;SDS011;18096;48.142;16.290;2022-08-19T08:41:42;2.85;;;2.60;;
14094;SDS011;18096;48.142;16.290;2022-08-19T08:44:18;3.00;;;2.90;;
14094;SDS011;18096;48.142;16.290;2022-08-19T08:46:49;3.33;;;3.03;;
14094;SDS011;18096;48.142;16.290;2022-08-19T08:49:25;3.93;;;2.90;;
14094;SDS011;18096;48.142;16.290;2022-08-19T08:52:00;4.07;;;2.78;;
14094;SDS011;18096;48.142;16.290;2022-08-19T08:54:42;3.70;;;2.97;;
14094;SDS011;18096;48.142;16.290;2022-08-19T08:57:12;2.88;;;2.70;;
14094;SDS011;18096;48.142;16.290;2022-08-19T08:59:43;2.60;;;2.40;;
14094;SDS011;18096;48.142;16.290;2022-08-19T09:02:16;7.60;;;2.70;;
14094;SDS011;18096;48.142;16.290;2022-08-19T09:04:42;2.55;;;2.35;;
14094;SDS011;18096;48.142;16.290;2022-08-19T09:10:37;2.08;;;1.98;;
14094;SDS011;18096;48.142;16.290;2022-08-19T09:13:15;3.42;;;3.22;;
14094;SDS011;18096;48.142;16.290;2022-08-19T09:16:05;2.53;;;2.42;;
14094;SDS011;18096;48.142;16.290;2022-08-19T09:18:47;2.80;;;2.60;;
14094;SDS011;18096;48.142;16.290;2022-08-19T09:21:17;2.50;;;2.40;;
14094;SDS011;18096;48.142;16.290;2022-08-19T09:23:43;8.50;;;2.85;;
14094;SDS011;18096;48.142;16.290;2022-08-19T09:26:10;9.50;;;2.30;;
14094;SDS011;18096;48.142;16.290;2022-08-19T09:28:39;2.50;;;2.40;;
14094;SDS011;18096;48.142;16.290;2022-08-19T09:31:29;3.30;;;3.10;;
14094;SDS011;18096;48.142;16.290;2022-08-19T09:33:55;4.00;;;3.17;;
14094;SDS011;18096;48.142;16.290;2022-08-19T09:36:24;3.90;;;2.90;;
14094;SDS011;18096;48.142;16.290;2022-08-19T09:38:54;11.48;;;2.97;;
14094;SDS011;18096;48.142;16.290;2022-08-19T09:41:21;6.65;;;2.85;;
14094;SDS011;18096;48.142;16.290;2022-08-19T09:43:50;3.10;;;2.60;;
14094;SDS011;18096;48.142;16.290;2022-08-19T09:46:19;10.23;;;2.20;;
14094;SDS011;18096;48.142;16.290;2022-08-19T09:48:46;3.63;;;2.75;;
14094;SDS011;18096;48.142;16.290;2022-08-19T09:51:14;8.13;;;3.10;;
14094;SDS011;18096;48.142;16.290;2022-08-19T09:53:42;3.03;;;2.42;;
14094;SDS011;18096;48.142;16.290;2022-08-19T09:56:09;2.80;;;2.60;;
14094;SDS011;18096;48.142;16.290;2022-08-19T09:58:36;3.90;;;2.20;;
14094;SDS011;18096;48.142;16.290;2022-08-19T10:01:02;2.70;;;2.50;;
14094;SDS011;18096;48.142;16.290;2022-08-19T10:03:29;3.33;;;2.67;;
14094;SDS011;18096;48.142;16.290;2022-08-19T10:05:57;5.30;;;2.70;;
14094;SDS011;18096;48.142;16.290;2022-08-19T10:08:28;2.67;;;2.55;;
14094;SDS011;18096;48.142;16.290;2022-08-19T10:10:55;2.95;;;2.75;;
14094;SDS011;18096;48.142;16.290;2022-08-19T10:13:22;6.50;;;2.90;;
14094;SDS011;18096;48.142;16.290;2022-08-19T10:15:52;7.40;;;2.42;;
14094;SDS011;18096;48.142;16.290;2022-08-19T10:18:19;2.88;;;2.67;;
14094;SDS011;18096;48.142;16.290;2022-08-19T10:20:46;3.50;;;2.50;;
14094;SDS011;18096;48.142;16.290;2022-08-19T10:23:12;9.23;;;2.80;;
14094;SDS011;18096;48.142;16.290;2022-08-19T10:25:40;3.70;;;2.92;;
14094;SDS011;18096;48.142;16.290;2022-08-19T10:28:06;3.30;;;2.92;;
14094;SDS011;18096;48.142;16.290;2022-08-19T10:30:32;3.00;;;2.80;;
14094;SDS011;18096;48.142;16.290;2022-08-19T10:33:00;7.03;;;3.40;;
14094;SDS011;18096;48.142;16.290;2022-08-19T10:35:25;14.60;;;2.72;;
14094;SDS011;18096;48.142;16.290;2022-08-19T10:37:54;6.22;;;2.53;;
14094;SDS011;18096;48.142;16.290;2022-08-19T10:40:23;6.07;;;2.88;;
14094;SDS011;18096;48.142;16.290;2022-08-19T10:42:50;3.05;;;2.85;;
14094;SDS011;18096;48.142;16.290;2022-08-19T10:45:15;3.60;;;3.30;;
14094;SDS011;18096;48.142;16.290;2022-08-19T10:47:41;2.85;;;2.60;;
14094;SDS011;18096;48.142;16.290;2022-08-19T10:50:07;7.85;;;2.80;;
14094;SDS011;18096;48.142;16.290;2022-08-19T10:52:51;4.90;;;2.95;;
14094;SDS011;18096;48.142;16.290;2022-08-19T10:55:21;3.73;;;3.10;;
14094;SDS011;18096;48.142;16.290;2022-08-19T10:58:14;4.05;;;2.92;;
14094;SDS011;18096;48.142;16.290;2022-08-19T11:00:42;4.50;;;3.60;;
14094;SDS011;18096;48.142;16.290;2022-08-19T11:03:15;12.80;;;3.50;;
14094;SDS011;18096;48.142;16.290;2022-08-19T11:05:41;5.30;;;3.10;;
14094;SDS011;18096;48.142;16.290;2022-08-19T11:08:07;3.70;;;2.90;;
14094;SDS011;18096;48.142;16.290;2022-08-19T11:10:36;3.50;;;3.20;;
14094;SDS011;18096;48.142;16.290;2022-08-19T11:13:05;5.40;;;3.60;;
14094;SDS011;18096;48.142;16.290;2022-08-19T11:15:31;5.85;;;3.58;;
14094;SDS011;18096;48.142;16.290;2022-08-19T11:17:58;2.93;;;2.67;;
14094;SDS011;18096;48.142;16.290;2022-08-19T11:20:24;5.10;;;2.50;;
14094;SDS011;18096;48.142;16.290;2022-08-19T11:22:50;3.00;;;2.70;;
14094;SDS011;18096;48.142;16.290;2022-08-19T11:25:18;15.02;;;4.07;;
14094;SDS011;18096;48.142;16.290;2022-08-19T11:27:44;4.70;;;3.70;;
14094;SDS011;18096;48.142;16.290;2022-08-19T11:30:15;3.50;;;3.30;;
14094;SDS011;18096;48.142;16.290;2022-08-19T11:32:41;5.88;;;3.58;;
14094;SDS011;18096;48.142;16.290;2022-08-19T11:35:07;6.97;;;3.10;;
14094;SDS011;18096;48.142;16.290;2022-08-19T11:37:33;4.03;;;3.40;;
14094;SDS011;18096;48.142;16.290;2022-08-19T11:40:02;4.68;;;3.00;;
14094;SDS011;18096;48.142;16.290;2022-08-19T11:42:29;3.85;;;3.10;;
14094;SDS011;18096;48.142;16.290;2022-08-19T11:45:13;2.95;;;2.75;;
14094;SDS011;18096;48.142;16.290;2022-08-19T11:47:39;3.20;;;2.88;;
14094;SDS011;18096;48.142;16.290;2022-08-19T11:50:04;3.28;;;2.15;;
14094;SDS011;18096;48.142;16.290;2022-08-19T11:52:30;5.20;;;3.10;;
14094;SDS011;18096;48.142;16.290;2022-08-19T11:54:56;4.03;;;2.60;;
14094;SDS011;18096;48.142;16.290;2022-08-19T11:57:22;6.70;;;3.40;;
14094;SDS011;18096;48.142;16.290;2022-08-19T11:59:48;4.88;;;3.55;;
14094;SDS011;18096;48.142;16.290;2022-08-19T12:02:16;11.00;;;3.22;;
14094;SDS011;18096;48.142;16.290;2022-08-19T12:04:42;8.13;;;3.20;;
14094;SDS011;18096;48.142;16.290;2022-08-19T12:07:07;9.30;;;2.55;;
14094;SDS011;18096;48.142;16.290;2022-08-19T12:09:33;8.90;;;2.60;;
14094;SDS011;18096;48.142;16.290;2022-08-19T12:11:59;2.85;;;2.55;;
14094;SDS011;18096;48.142;16.290;2022-08-19T12:14:26;8.40;;;3.70;;
14094;SDS011;18096;48.142;16.290;2022-08-19T12:16:52;6.40;;;2.80;;
14094;SDS011;18096;48.142;16.290;2022-08-19T12:19:18;14.37;;;3.20;;
14094;SDS011;18096;48.142;16.290;2022-08-19T12:21:44;4.70;;;3.00;;
14094;SDS011;18096;48.142;16.290;2022-08-19T12:24:10;5.67;;;3.03;;
14094;SDS011;18096;48.142;16.290;2022-08-19T12:26:36;10.70;;;3.08;;
14094;SDS011;18096;48.142;16.290;2022-08-19T12:29:02;8.10;;;4.17;;
14094;SDS011;18096;48.142;16.290;2022-08-19T12:31:28;6.50;;;4.00;;
14094;SDS011;18096;48.142;16.290;2022-08-19T12:33:54;5.60;;;3.30;;
14094;SDS011;18096;48.142;16.290;2022-08-19T12:36:20;5.72;;;2.70;;
14094;SDS011;18096;48.142;16.290;2022-08-19T12:38:48;4.30;;;3.30;;
14094;SDS011;18096;48.142;16.290;2022-08-19T12:41:15;8.23;;;3.13;;
14094;SDS011;18096;48.142;16.290;2022-08-19T12:43:43;9.90;;;3.75;;
14094;SDS011;18096;48.142;16.290;2022-08-19T12:46:09;6.67;;;2.70;;
14094;SDS011;18096;48.142;16.290;2022-08-19T12:48:36;10.68;;;3.72;;
14094;SDS011;18096;48.142;16.290;2022-08-19T12:51:06;3.75;;;3.28;;
14094;SDS011;18096;48.142;16.290;2022-08-19T12:53:34;7.00;;;4.43;;
14094;SDS011;18096;48.142;16.290;2022-08-19T12:56:00;15.60;;;3.90;;
14094;SDS011;18096;48.142;16.290;2022-08-19T12:58:26;7.97;;;3.17;;
14094;SDS011;18096;48.142;16.290;2022-08-19T13:00:53;8.40;;;3.72;;
14094;SDS011;18096;48.142;16.290;2022-08-19T13:03:19;4.38;;;3.00;;
14094;SDS011;18096;48.142;16.290;2022-08-19T13:05:44;7.47;;;3.50;;
14094;SDS011;18096;48.142;16.290;2022-08-19T13:08:10;9.30;;;3.55;;
14094;SDS011;18096;48.142;16.290;2022-08-19T13:10:36;5.35;;;3.25;;
14094;SDS011;18096;48.142;16.290;2022-08-19T13:13:03;3.55;;;3.25;;
14094;SDS011;18096;48.142;16.290;2022-08-19T13:15:35;4.85;;;3.30;;
14094;SDS011;18096;48.142;16.290;2022-08-19T13:18:04;11.68;;;3.60;;
14094;SDS011;18096;48.142;16.290;2022-08-19T13:20:30;11.43;;;4.03;;
14094;SDS011;18096;48.142;16.290;2022-08-19T13:22:56;11.70;;;3.23;;
14094;SDS011;18096;48.142;16.290;2022-08-19T13:25:22;10.05;;;2.80;;
14094;SDS011;18096;48.142;16.290;2022-08-19T13:27:48;7.75;;;3.25;;
14094;SDS011;18096;48.142;16.290;2022-08-19T13:30:16;10.93;;;3.23;;
14094;SDS011;18096;48.142;16.290;2022-08-19T13:33:01;5.45;;;3.55;;
14094;SDS011;18096;48.142;16.290;2022-08-19T13:35:37;4.00;;;2.90;;
14094;SDS011;18096;48.142;16.290;2022-08-19T13:38:04;11.27;;;3.28;;
14094;SDS011;18096;48.142;16.290;2022-08-19T13:40:30;4.60;;;2.88;;
14094;SDS011;18096;48.142;16.290;2022-08-19T13:42:58;23.00;;;4.32;;
14094;SDS011;18096;48.142;16.290;2022-08-19T13:45:26;11.70;;;3.90;;
14094;SDS011;18096;48.142;16.290;2022-08-19T13:47:53;9.27;;;4.00;;
14094;SDS011;18096;48.142;16.290;2022-08-19T13:50:22;3.13;;;2.92;;
14094;SDS011;18096;48.142;16.290;2022-08-19T13:52:53;8.95;;;3.92;;
14094;SDS011;18096;48.142;16.290;2022-08-19T13:55:19;9.10;;;3.45;;
14094;SDS011;18096;48.142;16.290;2022-08-19T13:57:45;10.88;;;3.30;;
14094;SDS011;18096;48.142;16.290;2022-08-19T14:00:15;3.75;;;2.75;;
14094;SDS011;18096;48.142;16.290;2022-08-19T14:02:45;6.35;;;3.35;;
14094;SDS011;18096;48.142;16.290;2022-08-19T14:05:13;3.90;;;3.30;;
14094;SDS011;18096;48.142;16.290;2022-08-19T14:07:40;6.05;;;3.10;;
14094;SDS011;18096;48.142;16.290;2022-08-19T14:10:07;9.50;;;2.90;;
14094;SDS011;18096;48.142;16.290;2022-08-19T14:12:35;14.60;;;3.90;;
14094;SDS011;18096;48.142;16.290;2022-08-19T14:15:02;3.75;;;2.70;;
14094;SDS011;18096;48.142;16.290;2022-08-19T14:17:28;11.85;;;2.30;;
14094;SDS011;18096;48.142;16.290;2022-08-19T14:19:57;4.80;;;2.03;;
14094;SDS011;18096;48.142;16.290;2022-08-19T14:22:25;6.50;;;2.33;;
14094;SDS011;18096;48.142;16.290;2022-08-19T14:24:51;7.13;;;2.40;;
14094;SDS011;18096;48.142;16.290;2022-08-19T14:27:17;7.80;;;2.65;;
14094;SDS011;18096;48.142;16.290;2022-08-19T14:29:42;5.43;;;2.90;;
14094;SDS011;18096;48.142;16.290;2022-08-19T14:32:09;4.70;;;2.97;;
14094;SDS011;18096;48.142;16.290;2022-08-19T14:34:35;5.93;;;2.43;;
14094;SDS011;18096;48.142;16.290;2022-08-19T14:37:02;2.58;;;1.60;;
14094;SDS011;18096;48.142;16.290;2022-08-19T14:39:28;3.75;;;2.10;;
14094;SDS011;18096;48.142;16.290;2022-08-19T14:41:53;4.25;;;2.28;;
14094;SDS011;18096;48.142;16.290;2022-08-19T14:44:19;2.80;;;2.03;;
14094;SDS011;18096;48.142;16.290;2022-08-19T14:46:45;3.00;;;1.70;;